createdAt,value
2023-01-02T11:48:45.772Z,2.67
2023-01-02T11:51:41.241Z,1.70
2023-01-02T11:54:56.924Z,2.03
2023-01-02T12:09:45.507Z,2.70
2023-01-02T12:12:33.848Z,2.43
2023-01-02T12:15:37.383Z,2.30
2023-01-02T12:18:43.244Z,2.53
2023-01-02T12:31:29.818Z,2.80
2023-01-02T12:34:25.447Z,2.50
2023-01-02T12:37:07.341Z,2.20
2023-01-02T12:39:55.007Z,2.10
2023-01-02T12:42:30.662Z,2.20
2023-01-02T12:44:59.042Z,2.27
2023-01-02T12:48:00.665Z,2.50
2023-01-02T12:50:49.055Z,2.27
2023-01-02T12:53:41.991Z,2.77
2023-01-02T12:56:15.508Z,2.53
2023-01-02T12:59:12.704Z,2.23
2023-01-02T13:01:59.472Z,2.40
2023-01-02T13:04:35.603Z,2.20
2023-01-02T13:07:10.161Z,2.10
2023-01-02T13:09:45.588Z,2.00
2023-01-02T13:12:21.820Z,2.47
2023-01-02T13:14:58.073Z,2.10
2023-01-02T13:17:46.483Z,2.67
2023-01-02T13:20:50.792Z,2.60
2023-01-02T13:23:36.868Z,2.70
2023-01-02T13:26:23.174Z,2.33
2023-01-02T13:28:52.825Z,2.00
2023-01-02T13:31:45.576Z,2.50
2023-01-02T13:34:22.302Z,2.33
2023-01-02T13:36:51.285Z,2.63
2023-01-02T13:39:27.516Z,2.20
2023-01-02T13:42:17.148Z,2.60
2023-01-02T13:44:47.806Z,2.50
2023-01-02T13:47:24.702Z,2.37
2023-01-02T13:50:02.818Z,2.10
2023-01-02T13:52:29.693Z,2.33
2023-01-02T13:55:21.126Z,2.50
2023-01-02T13:58:17.768Z,2.03
2023-01-02T14:00:54.280Z,2.50
2023-01-02T14:03:24.960Z,2.50
2023-01-02T14:05:58.016Z,2.03
2023-01-02T14:08:30.509Z,2.80
2023-01-02T14:11:01.855Z,2.57
2023-01-02T14:13:36.127Z,2.53
2023-01-02T14:16:39.158Z,2.17
2023-01-02T14:19:16.476Z,2.83
2023-01-02T14:21:50.873Z,2.80
2023-01-02T14:24:41.172Z,2.20
2023-01-02T14:27:33.245Z,3.50
2023-01-02T14:30:04.946Z,2.10
2023-01-02T14:32:34.369Z,2.50
2023-01-02T14:35:05.205Z,2.37
2023-01-02T14:37:47.969Z,3.03
2023-01-02T14:40:23.406Z,2.50
2023-01-02T14:43:13.311Z,2.97
2023-01-02T14:45:46.850Z,3.10
2023-01-02T14:48:19.349Z,3.70
2023-01-02T14:50:48.785Z,2.90
2023-01-02T14:53:38.660Z,2.47
2023-01-02T14:56:15.352Z,2.30
2023-01-02T14:58:44.253Z,2.93
2023-01-02T15:01:15.286Z,5.03
2023-01-02T15:04:14.098Z,12.07
2023-01-02T15:06:48.897Z,7.57
2023-01-02T15:09:29.578Z,5.47
2023-01-02T15:12:17.114Z,7.03
2023-01-02T15:14:43.988Z,6.60
2023-01-02T15:17:19.279Z,5.47
2023-01-02T15:19:47.332Z,8.27
2023-01-02T15:22:19.533Z,10.40
2023-01-02T15:24:51.556Z,8.57
2023-01-02T15:27:25.369Z,7.03
2023-01-02T15:29:55.436Z,5.53
2023-01-02T15:32:29.294Z,5.40
2023-01-02T15:35:10.003Z,6.70
2023-01-02T15:37:45.797Z,6.67
2023-01-02T15:40:26.482Z,5.30
2023-01-02T15:43:13.831Z,4.10
2023-01-02T15:45:47.259Z,4.53
2023-01-02T15:48:14.947Z,3.27
2023-01-02T15:50:42.125Z,3.27
2023-01-02T15:53:20.785Z,2.60
2023-01-02T15:55:48.213Z,2.97
2023-01-02T15:58:14.887Z,3.00
2023-01-02T16:00:42.600Z,3.30
2023-01-02T16:03:11.229Z,4.00
2023-01-02T16:05:49.545Z,2.70
2023-01-02T16:08:26.007Z,3.07
2023-01-02T16:11:01.244Z,3.43
2023-01-02T16:14:04.127Z,2.30
2023-01-02T16:17:11.444Z,3.47
2023-01-02T16:20:00.262Z,3.80
2023-01-02T16:22:35.006Z,2.80
2023-01-02T16:25:13.282Z,3.13
2023-01-02T16:27:51.814Z,3.13
2023-01-02T16:30:38.285Z,3.67
2023-01-02T16:33:27.861Z,4.17
2023-01-02T16:36:03.613Z,4.33
2023-01-02T16:38:54.089Z,3.20
2023-01-02T16:41:40.954Z,2.80
2023-01-02T16:44:14.481Z,3.43
2023-01-02T16:46:43.030Z,3.07
2023-01-02T16:49:21.884Z,5.03
2023-01-02T16:51:51.324Z,3.83
2023-01-02T16:54:19.626Z,3.17
2023-01-02T16:56:47.797Z,2.80
2023-01-02T16:59:14.471Z,2.80
2023-01-02T17:01:41.507Z,2.83
2023-01-02T17:04:08.912Z,2.37
2023-01-02T17:06:35.776Z,3.60
2023-01-02T17:09:02.456Z,2.97
2023-01-02T17:11:29.728Z,3.10
2023-01-02T17:13:56.509Z,7.90
2023-01-02T17:16:23.355Z,8.47
2023-01-02T17:18:50.028Z,9.33
2023-01-02T17:21:16.741Z,6.73
2023-01-02T17:23:43.535Z,4.03
2023-01-02T17:26:10.240Z,5.90
2023-01-02T17:28:36.995Z,7.60
2023-01-02T17:31:04.083Z,2.53
2023-01-02T17:33:30.804Z,3.10
2023-01-02T17:35:58.224Z,2.17
2023-01-02T17:38:25.107Z,2.03
2023-01-02T17:40:59.073Z,2.07
2023-01-02T17:43:26.545Z,2.20
2023-01-02T17:45:53.692Z,1.57
2023-01-02T17:48:24.629Z,2.30
2023-01-02T17:50:52.927Z,1.93
2023-01-02T17:53:19.660Z,2.00
2023-01-02T17:56:21.030Z,2.50
2023-01-02T17:58:44.017Z,2.20
2023-01-02T18:01:21.269Z,2.03
2023-01-02T18:03:48.823Z,3.23
2023-01-02T18:06:16.573Z,3.40
2023-01-02T18:08:44.051Z,2.17
2023-01-02T18:11:15.868Z,2.67
2023-01-02T18:13:48.144Z,2.10
2023-01-02T18:16:29.301Z,2.40
2023-01-02T18:18:56.096Z,2.13
2023-01-02T18:21:28.124Z,2.23
2023-01-02T18:23:58.445Z,2.30
2023-01-02T18:26:26.476Z,1.77
2023-01-02T18:28:57.301Z,2.50
2023-01-02T18:31:25.419Z,2.90
2023-01-02T18:33:57.023Z,2.70
2023-01-02T18:36:24.739Z,2.97
2023-01-02T18:39:13.709Z,2.70
2023-01-02T18:41:41.520Z,6.20
2023-01-02T18:44:24.873Z,5.37
2023-01-02T18:47:06.675Z,2.23
2023-01-02T18:49:41.639Z,3.27
2023-01-02T18:52:11.526Z,3.23
2023-01-02T18:54:43.215Z,2.60
2023-01-02T18:57:17.531Z,2.70
2023-01-02T18:59:46.682Z,3.60
2023-01-02T19:02:44.670Z,2.17
2023-01-02T19:05:44.193Z,2.70
2023-01-02T19:08:21.345Z,2.40
2023-01-02T19:10:51.323Z,2.50
2023-01-02T19:13:30.177Z,2.70
2023-01-02T19:16:11.110Z,2.70
2023-01-02T19:18:46.994Z,2.40
2023-01-02T19:21:17.159Z,2.70
2023-01-02T19:23:46.873Z,2.70
2023-01-02T19:26:24.376Z,2.43
2023-01-02T19:28:56.669Z,2.60
2023-01-02T19:31:23.784Z,3.00
2023-01-02T19:33:55.140Z,2.33
2023-01-02T19:36:36.622Z,2.57
2023-01-02T19:39:30.199Z,3.13
2023-01-02T19:42:15.903Z,3.10
2023-01-02T19:44:42.595Z,3.40
2023-01-02T19:47:09.297Z,3.33
2023-01-02T19:49:36.042Z,3.70
2023-01-02T19:52:02.857Z,4.00
2023-01-02T19:54:29.673Z,4.27
2023-01-02T19:56:56.394Z,3.40
2023-01-02T19:59:23.096Z,3.37
2023-01-02T20:01:49.927Z,3.33
2023-01-02T20:04:17.048Z,3.37
2023-01-02T20:06:43.767Z,2.80
2023-01-02T20:09:10.534Z,2.90
2023-01-02T20:11:56.107Z,2.90
2023-01-02T20:14:22.976Z,3.50
2023-01-02T20:16:49.707Z,2.63
2023-01-02T20:19:16.483Z,2.47
2023-01-02T20:21:43.202Z,2.13
2023-01-02T20:24:09.932Z,1.53
2023-01-02T20:26:36.632Z,1.93
2023-01-02T20:29:04.200Z,1.40
2023-01-02T20:31:31.388Z,1.47
2023-01-02T20:33:58.207Z,1.37
2023-01-02T20:36:24.935Z,1.10
2023-01-02T20:38:52.839Z,1.10
2023-01-02T20:41:19.641Z,1.60
2023-01-02T20:43:46.449Z,1.30
2023-01-02T20:46:13.222Z,1.50
2023-01-02T20:48:40.043Z,5.20
2023-01-02T20:51:06.907Z,6.53
2023-01-02T20:53:33.709Z,1.50
2023-01-02T20:56:00.584Z,1.30
2023-01-02T20:58:27.318Z,0.90
2023-01-02T21:00:54.073Z,0.90
2023-01-02T21:03:20.922Z,1.00
2023-01-02T21:05:47.811Z,0.90
2023-01-02T21:08:14.605Z,1.10
2023-01-02T21:10:42.122Z,1.10
2023-01-02T21:13:10.839Z,0.90
2023-01-02T21:15:42.136Z,0.93
2023-01-02T21:18:09.644Z,1.00
2023-01-02T21:20:39.881Z,1.40
2023-01-02T21:23:10.160Z,0.80
2023-01-02T21:25:38.087Z,0.90
2023-01-02T21:28:06.712Z,0.90
2023-01-02T21:30:34.441Z,1.00
2023-01-02T21:33:01.187Z,0.80
2023-01-02T21:35:27.949Z,0.80
2023-01-02T21:37:54.634Z,0.83
2023-01-02T21:40:21.520Z,0.90
2023-01-02T21:42:48.386Z,0.90
2023-01-02T21:45:15.089Z,0.90
2023-01-02T21:47:41.807Z,0.83
2023-01-02T21:50:09.296Z,1.00
2023-01-02T21:52:36.122Z,1.27
2023-01-02T21:55:04.299Z,1.20
2023-01-02T21:58:02.615Z,1.00
2023-01-02T22:00:23.864Z,1.00
2023-01-02T22:02:51.408Z,1.00
2023-01-02T22:05:19.140Z,0.90
2023-01-02T22:07:46.565Z,0.90
2023-01-02T22:10:15.449Z,0.90
2023-01-02T22:12:42.781Z,1.07
2023-01-02T22:15:11.645Z,0.90
2023-01-02T22:17:38.418Z,1.10
2023-01-02T22:20:05.602Z,1.20
2023-01-02T22:22:32.390Z,1.30
2023-01-02T22:24:59.181Z,0.90
2023-01-02T22:27:26.135Z,1.33
2023-01-02T22:32:44.307Z,1.27
2023-01-02T22:35:11.143Z,1.30
2023-01-02T22:37:37.887Z,1.53
2023-01-02T22:40:04.975Z,1.20
2023-01-02T22:43:02.115Z,1.20
2023-01-02T22:45:35.584Z,1.20
2023-01-02T22:48:06.036Z,2.03
2023-01-02T22:50:41.975Z,1.30
2023-01-02T22:53:27.696Z,1.30
2023-01-02T22:55:55.046Z,1.50
2023-01-02T22:58:22.901Z,1.40
2023-01-02T23:01:03.320Z,1.30
2023-01-02T23:03:35.468Z,1.80
2023-01-02T23:06:02.237Z,1.20
2023-01-02T23:08:29.105Z,1.70
2023-01-02T23:10:56.029Z,1.57
2023-01-02T23:13:22.757Z,1.50
2023-01-02T23:16:07.966Z,1.40
2023-01-02T23:18:57.028Z,1.23
2023-01-02T23:21:27.983Z,1.33
2023-01-02T23:23:54.868Z,1.30
2023-01-02T23:26:24.393Z,1.20
2023-01-02T23:29:07.962Z,1.40
2023-01-02T23:31:37.606Z,1.40
2023-01-02T23:34:04.571Z,1.83
2023-01-02T23:36:31.528Z,1.90
2023-01-02T23:38:58.274Z,2.63
2023-01-02T23:41:25.081Z,2.20
2023-01-02T23:43:51.810Z,3.13
2023-01-02T23:46:19.100Z,3.80
2023-01-02T23:48:45.781Z,3.30
2023-01-02T23:51:12.518Z,3.20
2023-01-02T23:53:39.514Z,1.40
2023-01-02T23:56:27.179Z,1.60
2023-01-02T23:58:56.132Z,1.50
